Terminal Aerodrome Forecast
Issued by NWS

Current Version | Previous Version | Text Only | Print | Product List | Glossary On
Versions: 1 2 3 4 5 6 7 8 9 10 11 12 13 14 15 16 17 18 19 20 21 22
000
FTUS45 KABQ 310700 AAA
TAFSAF
TAF AMD
KSAF 310758Z 3108/0106 15010KT P6SM VCSH OVC015
      TEMPO 3108/3112 3SM -SN BR OVC010
     FM311200 13007KT 4SM -SN BR OVC020
      TEMPO 3112/3116 1SM -SN BR SCT005 OVC010
     FM311600 30007KT P6SM VCSH OVC020
     FM312100 19008KT 5SM -RASN BR BKN015 OVC025=

USA.gov is the U.S. government's official web portal to all federal, state and local government web resources and services.